sensor_id;sensor_type;location;lat;lon;timestamp;P1;durP1;ratioP1;P2;durP2;ratioP2
18596;SDS011;9428;50.950;6.912;2023-04-01T00:00:07;1.38;;;0.60;;
18596;SDS011;9428;50.950;6.912;2023-04-01T00:02:55;1.48;;;0.68;;
18596;SDS011;9428;50.950;6.912;2023-04-01T00:05:43;0.50;;;0.50;;
18596;SDS011;9428;50.950;6.912;2023-04-01T00:08:30;1.98;;;0.65;;
18596;SDS011;9428;50.950;6.912;2023-04-01T00:11:17;2.90;;;0.75;;
18596;SDS011;9428;50.950;6.912;2023-04-01T00:14:06;6.05;;;0.88;;
18596;SDS011;9428;50.950;6.912;2023-04-01T00:16:54;2.75;;;0.90;;
18596;SDS011;9428;50.950;6.912;2023-04-01T00:19:41;1.25;;;0.55;;
18596;SDS011;9428;50.950;6.912;2023-04-01T00:22:29;3.22;;;0.60;;
18596;SDS011;9428;50.950;6.912;2023-04-01T00:25:16;1.50;;;0.75;;
18596;SDS011;9428;50.950;6.912;2023-04-01T00:28:03;0.85;;;0.55;;
18596;SDS011;9428;50.950;6.912;2023-04-01T00:30:52;0.77;;;0.68;;
18596;SDS011;9428;50.950;6.912;2023-04-01T00:33:39;0.68;;;0.50;;
18596;SDS011;9428;50.950;6.912;2023-04-01T00:36:27;0.43;;;0.40;;
18596;SDS011;9428;50.950;6.912;2023-04-01T00:39:14;1.48;;;0.60;;
18596;SDS011;9428;50.950;6.912;2023-04-01T00:42:02;1.90;;;0.40;;
18596;SDS011;9428;50.950;6.912;2023-04-01T00:44:50;1.05;;;0.57;;
18596;SDS011;9428;50.950;6.912;2023-04-01T00:47:40;3.00;;;0.85;;
18596;SDS011;9428;50.950;6.912;2023-04-01T00:50:27;2.22;;;0.60;;
18596;SDS011;9428;50.950;6.912;2023-04-01T00:53:17;0.40;;;0.40;;
18596;SDS011;9428;50.950;6.912;2023-04-01T00:56:07;0.68;;;0.45;;
18596;SDS011;9428;50.950;6.912;2023-04-01T00:58:58;1.30;;;0.47;;
18596;SDS011;9428;50.950;6.912;2023-04-01T01:01:49;2.38;;;0.52;;
18596;SDS011;9428;50.950;6.912;2023-04-01T01:04:37;1.40;;;0.68;;
18596;SDS011;9428;50.950;6.912;2023-04-01T01:07:26;0.43;;;0.43;;
18596;SDS011;9428;50.950;6.912;2023-04-01T01:10:19;1.17;;;0.65;;
18596;SDS011;9428;50.950;6.912;2023-04-01T01:13:11;1.10;;;0.50;;
18596;SDS011;9428;50.950;6.912;2023-04-01T01:16:04;4.57;;;0.70;;
18596;SDS011;9428;50.950;6.912;2023-04-01T01:18:58;0.65;;;0.55;;
18596;SDS011;9428;50.950;6.912;2023-04-01T01:22:12;1.85;;;0.50;;
18596;SDS011;9428;50.950;6.912;2023-04-01T01:25:16;2.90;;;0.50;;
18596;SDS011;9428;50.950;6.912;2023-04-01T01:28:23;2.15;;;0.77;;
18596;SDS011;9428;50.950;6.912;2023-04-01T01:31:19;1.65;;;0.50;;
18596;SDS011;9428;50.950;6.912;2023-04-01T01:34:11;0.52;;;0.50;;
18596;SDS011;9428;50.950;6.912;2023-04-01T01:37:06;0.30;;;0.30;;
18596;SDS011;9428;50.950;6.912;2023-04-01T01:39:58;1.15;;;0.60;;
18596;SDS011;9428;50.950;6.912;2023-04-01T01:42:48;1.77;;;0.60;;
18596;SDS011;9428;50.950;6.912;2023-04-01T01:45:40;1.65;;;0.80;;
18596;SDS011;9428;50.950;6.912;2023-04-01T01:48:31;1.10;;;0.50;;
18596;SDS011;9428;50.950;6.912;2023-04-01T01:51:19;0.73;;;0.47;;
18596;SDS011;9428;50.950;6.912;2023-04-01T01:54:12;0.60;;;0.60;;
18596;SDS011;9428;50.950;6.912;2023-04-01T01:57:01;0.80;;;0.30;;
18596;SDS011;9428;50.950;6.912;2023-04-01T01:59:52;1.13;;;0.50;;
18596;SDS011;9428;50.950;6.912;2023-04-01T02:02:44;0.88;;;0.40;;
18596;SDS011;9428;50.950;6.912;2023-04-01T02:05:33;1.50;;;0.43;;
18596;SDS011;9428;50.950;6.912;2023-04-01T02:08:22;0.35;;;0.35;;
18596;SDS011;9428;50.950;6.912;2023-04-01T02:11:16;0.52;;;0.50;;
18596;SDS011;9428;50.950;6.912;2023-04-01T02:14:05;2.08;;;0.60;;
18596;SDS011;9428;50.950;6.912;2023-04-01T02:16:57;0.40;;;0.40;;
18596;SDS011;9428;50.950;6.912;2023-04-01T02:19:51;0.52;;;0.40;;
18596;SDS011;9428;50.950;6.912;2023-04-01T02:22:43;0.70;;;0.30;;
18596;SDS011;9428;50.950;6.912;2023-04-01T02:25:33;0.55;;;0.50;;
18596;SDS011;9428;50.950;6.912;2023-04-01T02:28:23;0.60;;;0.57;;
18596;SDS011;9428;50.950;6.912;2023-04-01T02:31:11;0.73;;;0.50;;
18596;SDS011;9428;50.950;6.912;2023-04-01T02:34:01;0.40;;;0.40;;
18596;SDS011;9428;50.950;6.912;2023-04-01T02:36:49;2.20;;;0.47;;
18596;SDS011;9428;50.950;6.912;2023-04-01T02:39:38;0.93;;;0.47;;
18596;SDS011;9428;50.950;6.912;2023-04-01T02:42:26;1.15;;;0.32;;
18596;SDS011;9428;50.950;6.912;2023-04-01T02:45:14;1.75;;;0.50;;
18596;SDS011;9428;50.950;6.912;2023-04-01T02:48:02;1.88;;;0.50;;
18596;SDS011;9428;50.950;6.912;2023-04-01T02:50:49;1.13;;;0.40;;
18596;SDS011;9428;50.950;6.912;2023-04-01T02:53:37;0.82;;;0.60;;
18596;SDS011;9428;50.950;6.912;2023-04-01T02:56:24;3.05;;;0.68;;
18596;SDS011;9428;50.950;6.912;2023-04-01T02:59:12;0.55;;;0.50;;
18596;SDS011;9428;50.950;6.912;2023-04-01T03:02:01;0.40;;;0.40;;
18596;SDS011;9428;50.950;6.912;2023-04-01T03:04:48;0.50;;;0.40;;
18596;SDS011;9428;50.950;6.912;2023-04-01T03:07:35;0.55;;;0.55;;
18596;SDS011;9428;50.950;6.912;2023-04-01T03:10:22;0.68;;;0.60;;
18596;SDS011;9428;50.950;6.912;2023-04-01T03:13:09;0.90;;;0.40;;
18596;SDS011;9428;50.950;6.912;2023-04-01T03:15:57;1.30;;;0.40;;
18596;SDS011;9428;50.950;6.912;2023-04-01T03:18:45;0.45;;;0.40;;
18596;SDS011;9428;50.950;6.912;2023-04-01T03:21:34;0.35;;;0.30;;
18596;SDS011;9428;50.950;6.912;2023-04-01T03:24:22;0.30;;;0.30;;
18596;SDS011;9428;50.950;6.912;2023-04-01T03:27:09;0.57;;;0.40;;
18596;SDS011;9428;50.950;6.912;2023-04-01T03:29:56;0.43;;;0.40;;
18596;SDS011;9428;50.950;6.912;2023-04-01T03:32:43;2.20;;;0.35;;
18596;SDS011;9428;50.950;6.912;2023-04-01T03:35:32;0.40;;;0.40;;
18596;SDS011;9428;50.950;6.912;2023-04-01T03:38:21;1.17;;;0.40;;
18596;SDS011;9428;50.950;6.912;2023-04-01T03:41:11;0.30;;;0.30;;
18596;SDS011;9428;50.950;6.912;2023-04-01T03:43:59;3.00;;;0.40;;
18596;SDS011;9428;50.950;6.912;2023-04-01T03:46:46;0.90;;;0.50;;
18596;SDS011;9428;50.950;6.912;2023-04-01T03:49:33;0.65;;;0.40;;
18596;SDS011;9428;50.950;6.912;2023-04-01T03:52:22;0.38;;;0.30;;
18596;SDS011;9428;50.950;6.912;2023-04-01T03:55:09;1.13;;;0.47;;
18596;SDS011;9428;50.950;6.912;2023-04-01T03:57:56;1.52;;;0.60;;
18596;SDS011;9428;50.950;6.912;2023-04-01T04:00:44;0.75;;;0.30;;
18596;SDS011;9428;50.950;6.912;2023-04-01T04:03:31;0.38;;;0.38;;
18596;SDS011;9428;50.950;6.912;2023-04-01T04:06:18;0.40;;;0.40;;
18596;SDS011;9428;50.950;6.912;2023-04-01T04:09:07;0.68;;;0.47;;
18596;SDS011;9428;50.950;6.912;2023-04-01T04:11:54;0.35;;;0.32;;
18596;SDS011;9428;50.950;6.912;2023-04-01T04:14:42;0.50;;;0.50;;
18596;SDS011;9428;50.950;6.912;2023-04-01T04:17:29;0.20;;;0.20;;
18596;SDS011;9428;50.950;6.912;2023-04-01T04:20:16;0.52;;;0.40;;
18596;SDS011;9428;50.950;6.912;2023-04-01T04:23:03;0.35;;;0.35;;
18596;SDS011;9428;50.950;6.912;2023-04-01T04:25:56;0.68;;;0.45;;
18596;SDS011;9428;50.950;6.912;2023-04-01T04:28:44;0.40;;;0.30;;
18596;SDS011;9428;50.950;6.912;2023-04-01T04:31:31;1.30;;;0.45;;
18596;SDS011;9428;50.950;6.912;2023-04-01T04:34:19;0.20;;;0.20;;
18596;SDS011;9428;50.950;6.912;2023-04-01T04:37:07;0.30;;;0.30;;
18596;SDS011;9428;50.950;6.912;2023-04-01T04:39:54;0.47;;;0.30;;
18596;SDS011;9428;50.950;6.912;2023-04-01T04:42:43;0.40;;;0.40;;
18596;SDS011;9428;50.950;6.912;2023-04-01T04:45:30;0.80;;;0.30;;
18596;SDS011;9428;50.950;6.912;2023-04-01T04:48:18;0.50;;;0.30;;
18596;SDS011;9428;50.950;6.912;2023-04-01T04:51:05;0.20;;;0.20;;
18596;SDS011;9428;50.950;6.912;2023-04-01T04:53:52;0.30;;;0.30;;
18596;SDS011;9428;50.950;6.912;2023-04-01T04:56:40;0.35;;;0.30;;
18596;SDS011;9428;50.950;6.912;2023-04-01T04:59:29;0.30;;;0.30;;
18596;SDS011;9428;50.950;6.912;2023-04-01T05:02:17;0.40;;;0.38;;
18596;SDS011;9428;50.950;6.912;2023-04-01T05:05:05;0.38;;;0.30;;
18596;SDS011;9428;50.950;6.912;2023-04-01T05:07:52;1.48;;;0.50;;
18596;SDS011;9428;50.950;6.912;2023-04-01T05:10:39;2.17;;;0.95;;
18596;SDS011;9428;50.950;6.912;2023-04-01T05:13:27;2.13;;;0.43;;
18596;SDS011;9428;50.950;6.912;2023-04-01T05:16:16;0.35;;;0.32;;
18596;SDS011;9428;50.950;6.912;2023-04-01T05:19:04;0.50;;;0.45;;
18596;SDS011;9428;50.950;6.912;2023-04-01T05:21:52;0.60;;;0.30;;
18596;SDS011;9428;50.950;6.912;2023-04-01T05:24:39;0.65;;;0.30;;
18596;SDS011;9428;50.950;6.912;2023-04-01T05:27:26;0.47;;;0.40;;
18596;SDS011;9428;50.950;6.912;2023-04-01T05:30:13;0.30;;;0.30;;
18596;SDS011;9428;50.950;6.912;2023-04-01T05:33:02;0.60;;;0.47;;
18596;SDS011;9428;50.950;6.912;2023-04-01T05:35:49;0.40;;;0.38;;
18596;SDS011;9428;50.950;6.912;2023-04-01T05:38:37;2.35;;;0.40;;
18596;SDS011;9428;50.950;6.912;2023-04-01T05:41:24;0.43;;;0.43;;
18596;SDS011;9428;50.950;6.912;2023-04-01T05:44:11;2.25;;;0.60;;
18596;SDS011;9428;50.950;6.912;2023-04-01T05:46:59;0.60;;;0.60;;
18596;SDS011;9428;50.950;6.912;2023-04-01T05:49:47;0.85;;;0.65;;
18596;SDS011;9428;50.950;6.912;2023-04-01T05:52:35;0.60;;;0.60;;
18596;SDS011;9428;50.950;6.912;2023-04-01T05:55:22;0.73;;;0.47;;
18596;SDS011;9428;50.950;6.912;2023-04-01T05:58:09;0.30;;;0.30;;
18596;SDS011;9428;50.950;6.912;2023-04-01T06:00:59;2.33;;;0.73;;
18596;SDS011;9428;50.950;6.912;2023-04-01T06:03:48;1.23;;;0.60;;
18596;SDS011;9428;50.950;6.912;2023-04-01T06:06:37;0.75;;;0.60;;
18596;SDS011;9428;50.950;6.912;2023-04-01T06:09:26;2.67;;;0.80;;
18596;SDS011;9428;50.950;6.912;2023-04-01T06:12:29;1.40;;;0.70;;
18596;SDS011;9428;50.950;6.912;2023-04-01T06:15:27;0.73;;;0.70;;
18596;SDS011;9428;50.950;6.912;2023-04-01T06:18:36;0.73;;;0.52;;
18596;SDS011;9428;50.950;6.912;2023-04-01T06:21:37;0.68;;;0.60;;
18596;SDS011;9428;50.950;6.912;2023-04-01T06:24:44;1.08;;;0.80;;
18596;SDS011;9428;50.950;6.912;2023-04-01T06:27:55;0.60;;;0.60;;
18596;SDS011;9428;50.950;6.912;2023-04-01T06:30:53;1.55;;;0.90;;
18596;SDS011;9428;50.950;6.912;2023-04-01T06:33:52;1.33;;;0.88;;
18596;SDS011;9428;50.950;6.912;2023-04-01T06:37:09;1.35;;;0.80;;
18596;SDS011;9428;50.950;6.912;2023-04-01T06:40:12;0.98;;;0.90;;
18596;SDS011;9428;50.950;6.912;2023-04-01T06:43:25;1.05;;;0.77;;
18596;SDS011;9428;50.950;6.912;2023-04-01T06:46:25;2.78;;;0.90;;
18596;SDS011;9428;50.950;6.912;2023-04-01T06:49:25;0.90;;;0.90;;
18596;SDS011;9428;50.950;6.912;2023-04-01T06:52:24;1.60;;;0.80;;
18596;SDS011;9428;50.950;6.912;2023-04-01T06:55:20;1.42;;;1.00;;
18596;SDS011;9428;50.950;6.912;2023-04-01T06:58:18;1.63;;;1.15;;
18596;SDS011;9428;50.950;6.912;2023-04-01T07:01:08;1.90;;;0.90;;
18596;SDS011;9428;50.950;6.912;2023-04-01T07:04:02;1.83;;;1.00;;
18596;SDS011;9428;50.950;6.912;2023-04-01T07:06:53;2.92;;;1.17;;
18596;SDS011;9428;50.950;6.912;2023-04-01T07:09:46;1.83;;;1.10;;
18596;SDS011;9428;50.950;6.912;2023-04-01T07:12:39;1.65;;;0.93;;
18596;SDS011;9428;50.950;6.912;2023-04-01T07:15:31;1.92;;;1.20;;
18596;SDS011;9428;50.950;6.912;2023-04-01T07:18:24;2.45;;;1.20;;
18596;SDS011;9428;50.950;6.912;2023-04-01T07:21:22;1.35;;;1.00;;
18596;SDS011;9428;50.950;6.912;2023-04-01T07:24:14;2.45;;;1.13;;
18596;SDS011;9428;50.950;6.912;2023-04-01T07:27:08;1.77;;;1.00;;
18596;SDS011;9428;50.950;6.912;2023-04-01T07:29:57;2.20;;;1.30;;
18596;SDS011;9428;50.950;6.912;2023-04-01T07:32:46;2.88;;;1.20;;
18596;SDS011;9428;50.950;6.912;2023-04-01T07:35:37;2.05;;;1.20;;
18596;SDS011;9428;50.950;6.912;2023-04-01T07:38:30;1.13;;;1.00;;
18596;SDS011;9428;50.950;6.912;2023-04-01T07:41:28;2.63;;;1.30;;
18596;SDS011;9428;50.950;6.912;2023-04-01T07:44:31;2.78;;;1.98;;
18596;SDS011;9428;50.950;6.912;2023-04-01T07:47:30;2.28;;;1.30;;
18596;SDS011;9428;50.950;6.912;2023-04-01T07:50:26;3.35;;;1.30;;
18596;SDS011;9428;50.950;6.912;2023-04-01T07:53:15;1.95;;;1.05;;
18596;SDS011;9428;50.950;6.912;2023-04-01T07:56:10;3.17;;;1.15;;
18596;SDS011;9428;50.950;6.912;2023-04-01T07:59:02;2.38;;;1.10;;
18596;SDS011;9428;50.950;6.912;2023-04-01T08:02:00;1.83;;;1.15;;
18596;SDS011;9428;50.950;6.912;2023-04-01T08:04:57;2.15;;;1.45;;
18596;SDS011;9428;50.950;6.912;2023-04-01T08:07:52;0.98;;;0.93;;
18596;SDS011;9428;50.950;6.912;2023-04-01T08:10:52;1.13;;;1.02;;
18596;SDS011;9428;50.950;6.912;2023-04-01T08:13:44;1.65;;;1.20;;
18596;SDS011;9428;50.950;6.912;2023-04-01T08:16:38;1.13;;;1.02;;
18596;SDS011;9428;50.950;6.912;2023-04-01T08:19:43;0.80;;;0.80;;
18596;SDS011;9428;50.950;6.912;2023-04-01T08:22:41;2.20;;;1.10;;
18596;SDS011;9428;50.950;6.912;2023-04-01T08:25:30;2.72;;;0.98;;
18596;SDS011;9428;50.950;6.912;2023-04-01T08:28:21;0.90;;;0.82;;
18596;SDS011;9428;50.950;6.912;2023-04-01T08:31:12;0.80;;;0.73;;
18596;SDS011;9428;50.950;6.912;2023-04-01T08:34:02;1.42;;;0.98;;
18596;SDS011;9428;50.950;6.912;2023-04-01T08:36:57;2.88;;;0.90;;
18596;SDS011;9428;50.950;6.912;2023-04-01T08:39:50;4.70;;;0.85;;
18596;SDS011;9428;50.950;6.912;2023-04-01T08:42:45;1.00;;;0.80;;
18596;SDS011;9428;50.950;6.912;2023-04-01T08:49:11;2.13;;;0.73;;
18596;SDS011;9428;50.950;6.912;2023-04-01T08:55:31;0.80;;;0.77;;
18596;SDS011;9428;50.950;6.912;2023-04-01T08:58:37;2.70;;;0.60;;
18596;SDS011;9428;50.950;6.912;2023-04-01T09:01:43;0.82;;;0.60;;
18596;SDS011;9428;50.950;6.912;2023-04-01T09:04:47;0.68;;;0.60;;
18596;SDS011;9428;50.950;6.912;2023-04-01T09:08:00;0.95;;;0.68;;
18596;SDS011;9428;50.950;6.912;2023-04-01T09:10:59;2.10;;;0.80;;
18596;SDS011;9428;50.950;6.912;2023-04-01T09:13:59;0.80;;;0.75;;
18596;SDS011;9428;50.950;6.912;2023-04-01T09:17:08;0.55;;;0.55;;
18596;SDS011;9428;50.950;6.912;2023-04-01T09:20:30;0.85;;;0.70;;
18596;SDS011;9428;50.950;6.912;2023-04-01T09:23:35;0.80;;;0.80;;
18596;SDS011;9428;50.950;6.912;2023-04-01T09:26:37;1.17;;;0.70;;
18596;SDS011;9428;50.950;6.912;2023-04-01T09:29:48;1.20;;;0.80;;
18596;SDS011;9428;50.950;6.912;2023-04-01T09:33:04;1.00;;;0.90;;
18596;SDS011;9428;50.950;6.912;2023-04-01T09:36:18;1.17;;;0.98;;
18596;SDS011;9428;50.950;6.912;2023-04-01T09:39:32;0.98;;;0.75;;
18596;SDS011;9428;50.950;6.912;2023-04-01T09:42:28;2.13;;;0.80;;
18596;SDS011;9428;50.950;6.912;2023-04-01T09:45:34;1.10;;;0.82;;
18596;SDS011;9428;50.950;6.912;2023-04-01T09:48:33;0.90;;;0.85;;
18596;SDS011;9428;50.950;6.912;2023-04-01T09:51:35;1.23;;;0.88;;
18596;SDS011;9428;50.950;6.912;2023-04-01T09:54:32;0.68;;;0.68;;
18596;SDS011;9428;50.950;6.912;2023-04-01T10:01:09;1.88;;;1.00;;
18596;SDS011;9428;50.950;6.912;2023-04-01T10:07:48;1.20;;;1.00;;
18596;SDS011;9428;50.950;6.912;2023-04-01T10:11:06;0.95;;;0.73;;
18596;SDS011;9428;50.950;6.912;2023-04-01T10:14:22;1.17;;;1.08;;
18596;SDS011;9428;50.950;6.912;2023-04-01T10:21:02;0.82;;;0.82;;
18596;SDS011;9428;50.950;6.912;2023-04-01T10:24:08;1.25;;;1.15;;
18596;SDS011;9428;50.950;6.912;2023-04-01T10:27:31;1.63;;;1.15;;
18596;SDS011;9428;50.950;6.912;2023-04-01T10:30:39;2.67;;;1.33;;
18596;SDS011;9428;50.950;6.912;2023-04-01T10:37:15;2.72;;;1.40;;
18596;SDS011;9428;50.950;6.912;2023-04-01T10:50:50;3.38;;;1.55;;
18596;SDS011;9428;50.950;6.912;2023-04-01T10:57:01;1.50;;;1.40;;
18596;SDS011;9428;50.950;6.912;2023-04-01T11:00:18;1.55;;;1.45;;
18596;SDS011;9428;50.950;6.912;2023-04-01T11:03:33;1.50;;;1.30;;
18596;SDS011;9428;50.950;6.912;2023-04-01T11:10:19;1.35;;;1.20;;
18596;SDS011;9428;50.950;6.912;2023-04-01T11:13:33;3.85;;;1.50;;
18596;SDS011;9428;50.950;6.912;2023-04-01T11:20:09;2.45;;;1.40;;
18596;SDS011;9428;50.950;6.912;2023-04-01T11:23:29;3.33;;;1.70;;
18596;SDS011;9428;50.950;6.912;2023-04-01T11:26:41;1.63;;;1.50;;
18596;SDS011;9428;50.950;6.912;2023-04-01T11:29:41;2.20;;;1.90;;
18596;SDS011;9428;50.950;6.912;2023-04-01T11:32:46;4.10;;;1.27;;
18596;SDS011;9428;50.950;6.912;2023-04-01T11:35:49;1.38;;;1.00;;
18596;SDS011;9428;50.950;6.912;2023-04-01T11:38:53;1.60;;;1.45;;
18596;SDS011;9428;50.950;6.912;2023-04-01T11:41:51;1.85;;;1.10;;
18596;SDS011;9428;50.950;6.912;2023-04-01T11:44:50;1.35;;;1.23;;
18596;SDS011;9428;50.950;6.912;2023-04-01T11:47:53;2.65;;;1.48;;
18596;SDS011;9428;50.950;6.912;2023-04-01T11:51:06;2.08;;;1.70;;
18596;SDS011;9428;50.950;6.912;2023-04-01T11:54:10;1.42;;;1.20;;
18596;SDS011;9428;50.950;6.912;2023-04-01T11:57:17;2.47;;;2.28;;
18596;SDS011;9428;50.950;6.912;2023-04-01T12:00:33;1.38;;;1.27;;
18596;SDS011;9428;50.950;6.912;2023-04-01T12:04:04;1.30;;;1.20;;
18596;SDS011;9428;50.950;6.912;2023-04-01T12:07:21;1.88;;;1.50;;
18596;SDS011;9428;50.950;6.912;2023-04-01T12:10:20;2.45;;;1.60;;
18596;SDS011;9428;50.950;6.912;2023-04-01T12:13:12;2.05;;;1.85;;
18596;SDS011;9428;50.950;6.912;2023-04-01T12:19:26;1.33;;;1.23;;
18596;SDS011;9428;50.950;6.912;2023-04-01T12:22:34;1.40;;;1.17;;
18596;SDS011;9428;50.950;6.912;2023-04-01T12:25:40;1.40;;;1.30;;
18596;SDS011;9428;50.950;6.912;2023-04-01T12:28:59;1.13;;;1.02;;
18596;SDS011;9428;50.950;6.912;2023-04-01T12:31:56;1.40;;;1.30;;
18596;SDS011;9428;50.950;6.912;2023-04-01T12:35:03;1.67;;;1.00;;
18596;SDS011;9428;50.950;6.912;2023-04-01T12:38:05;1.15;;;1.02;;
18596;SDS011;9428;50.950;6.912;2023-04-01T12:41:12;1.05;;;0.90;;
18596;SDS011;9428;50.950;6.912;2023-04-01T12:47:55;1.20;;;1.02;;
18596;SDS011;9428;50.950;6.912;2023-04-01T12:51:02;2.35;;;1.10;;
18596;SDS011;9428;50.950;6.912;2023-04-01T13:00:46;1.40;;;1.30;;
18596;SDS011;9428;50.950;6.912;2023-04-01T13:03:48;1.42;;;1.17;;
18596;SDS011;9428;50.950;6.912;2023-04-01T13:06:54;1.42;;;1.33;;
18596;SDS011;9428;50.950;6.912;2023-04-01T13:10:00;1.60;;;1.50;;
18596;SDS011;9428;50.950;6.912;2023-04-01T13:12:56;1.48;;;1.38;;
18596;SDS011;9428;50.950;6.912;2023-04-01T13:16:00;2.38;;;1.40;;
18596;SDS011;9428;50.950;6.912;2023-04-01T13:18:57;1.70;;;1.60;;
18596;SDS011;9428;50.950;6.912;2023-04-01T13:21:51;1.42;;;1.33;;
18596;SDS011;9428;50.950;6.912;2023-04-01T13:24:48;1.67;;;1.58;;
18596;SDS011;9428;50.950;6.912;2023-04-01T13:27:40;1.35;;;1.25;;
18596;SDS011;9428;50.950;6.912;2023-04-01T13:30:32;2.10;;;1.80;;
18596;SDS011;9428;50.950;6.912;2023-04-01T13:33:25;2.50;;;1.52;;
18596;SDS011;9428;50.950;6.912;2023-04-01T13:36:23;1.40;;;1.30;;
18596;SDS011;9428;50.950;6.912;2023-04-01T13:39:24;2.97;;;1.70;;
18596;SDS011;9428;50.950;6.912;2023-04-01T13:42:19;3.58;;;2.00;;
18596;SDS011;9428;50.950;6.912;2023-04-01T13:45:11;2.47;;;2.28;;
18596;SDS011;9428;50.950;6.912;2023-04-01T13:51:28;2.20;;;2.00;;
18596;SDS011;9428;50.950;6.912;2023-04-01T13:54:38;1.90;;;1.70;;
18596;SDS011;9428;50.950;6.912;2023-04-01T13:57:43;1.95;;;1.80;;
18596;SDS011;9428;50.950;6.912;2023-04-01T14:00:42;1.73;;;1.63;;
18596;SDS011;9428;50.950;6.912;2023-04-01T14:03:43;2.60;;;2.10;;
18596;SDS011;9428;50.950;6.912;2023-04-01T14:06:56;3.08;;;2.20;;
18596;SDS011;9428;50.950;6.912;2023-04-01T14:13:01;1.50;;;1.40;;
18596;SDS011;9428;50.950;6.912;2023-04-01T14:16:08;3.42;;;2.15;;
18596;SDS011;9428;50.950;6.912;2023-04-01T14:19:11;2.67;;;2.35;;
18596;SDS011;9428;50.950;6.912;2023-04-01T14:22:13;2.45;;;1.98;;
18596;SDS011;9428;50.950;6.912;2023-04-01T14:28:23;2.67;;;2.20;;
18596;SDS011;9428;50.950;6.912;2023-04-01T14:31:23;2.85;;;2.40;;
18596;SDS011;9428;50.950;6.912;2023-04-01T14:34:29;2.83;;;2.35;;
18596;SDS011;9428;50.950;6.912;2023-04-01T14:44:10;2.60;;;2.40;;
18596;SDS011;9428;50.950;6.912;2023-04-01T14:47:34;3.80;;;2.28;;
18596;SDS011;9428;50.950;6.912;2023-04-01T14:50:40;3.28;;;2.67;;
18596;SDS011;9428;50.950;6.912;2023-04-01T14:53:30;6.20;;;2.70;;
18596;SDS011;9428;50.950;6.912;2023-04-01T14:56:38;4.60;;;2.70;;
18596;SDS011;9428;50.950;6.912;2023-04-01T14:59:28;5.70;;;2.47;;
18596;SDS011;9428;50.950;6.912;2023-04-01T15:02:27;6.38;;;2.42;;
18596;SDS011;9428;50.950;6.912;2023-04-01T15:05:39;4.28;;;2.92;;
18596;SDS011;9428;50.950;6.912;2023-04-01T15:08:38;2.47;;;2.25;;
18596;SDS011;9428;50.950;6.912;2023-04-01T15:11:42;2.70;;;2.50;;
18596;SDS011;9428;50.950;6.912;2023-04-01T15:18:07;3.65;;;2.90;;
18596;SDS011;9428;50.950;6.912;2023-04-01T15:21:01;3.38;;;2.78;;
18596;SDS011;9428;50.950;6.912;2023-04-01T15:24:04;2.60;;;2.35;;
18596;SDS011;9428;50.950;6.912;2023-04-01T15:27:01;2.90;;;2.28;;
18596;SDS011;9428;50.950;6.912;2023-04-01T15:30:18;2.67;;;2.47;;
18596;SDS011;9428;50.950;6.912;2023-04-01T15:33:18;2.90;;;2.67;;
18596;SDS011;9428;50.950;6.912;2023-04-01T15:36:25;4.90;;;3.45;;
18596;SDS011;9428;50.950;6.912;2023-04-01T15:39:19;4.03;;;3.03;;
18596;SDS011;9428;50.950;6.912;2023-04-01T15:42:21;4.22;;;3.08;;
18596;SDS011;9428;50.950;6.912;2023-04-01T15:45:25;3.38;;;2.85;;
18596;SDS011;9428;50.950;6.912;2023-04-01T15:51:45;5.25;;;3.15;;
18596;SDS011;9428;50.950;6.912;2023-04-01T15:54:53;4.30;;;3.35;;
18596;SDS011;9428;50.950;6.912;2023-04-01T15:57:55;3.55;;;3.10;;
18596;SDS011;9428;50.950;6.912;2023-04-01T16:00:53;5.22;;;3.72;;
18596;SDS011;9428;50.950;6.912;2023-04-01T16:03:51;5.20;;;3.55;;
18596;SDS011;9428;50.950;6.912;2023-04-01T16:06:49;3.78;;;3.00;;
18596;SDS011;9428;50.950;6.912;2023-04-01T16:13:09;3.10;;;2.80;;
18596;SDS011;9428;50.950;6.912;2023-04-01T16:16:08;4.78;;;2.75;;
18596;SDS011;9428;50.950;6.912;2023-04-01T16:19:06;4.10;;;2.95;;
18596;SDS011;9428;50.950;6.912;2023-04-01T16:22:12;7.65;;;3.53;;
18596;SDS011;9428;50.950;6.912;2023-04-01T16:25:18;4.65;;;4.00;;
18596;SDS011;9428;50.950;6.912;2023-04-01T16:28:23;4.50;;;3.13;;
18596;SDS011;9428;50.950;6.912;2023-04-01T16:31:23;3.75;;;3.20;;
18596;SDS011;9428;50.950;6.912;2023-04-01T16:34:18;3.70;;;3.20;;
18596;SDS011;9428;50.950;6.912;2023-04-01T16:37:11;4.43;;;3.30;;
18596;SDS011;9428;50.950;6.912;2023-04-01T16:40:10;3.20;;;2.60;;
18596;SDS011;9428;50.950;6.912;2023-04-01T16:43:06;11.82;;;6.28;;
18596;SDS011;9428;50.950;6.912;2023-04-01T16:46:20;3.13;;;2.83;;
18596;SDS011;9428;50.950;6.912;2023-04-01T16:52:36;2.95;;;2.40;;
18596;SDS011;9428;50.950;6.912;2023-04-01T16:55:35;3.30;;;3.00;;
18596;SDS011;9428;50.950;6.912;2023-04-01T16:58:33;4.13;;;3.22;;
18596;SDS011;9428;50.950;6.912;2023-04-01T17:01:24;4.10;;;3.03;;
18596;SDS011;9428;50.950;6.912;2023-04-01T17:04:17;3.65;;;2.88;;
18596;SDS011;9428;50.950;6.912;2023-04-01T17:07:20;3.20;;;2.90;;
18596;SDS011;9428;50.950;6.912;2023-04-01T17:10:33;2.60;;;2.40;;
18596;SDS011;9428;50.950;6.912;2023-04-01T17:13:38;2.53;;;2.33;;
18596;SDS011;9428;50.950;6.912;2023-04-01T17:16:40;2.40;;;2.20;;
18596;SDS011;9428;50.950;6.912;2023-04-01T17:19:46;6.63;;;2.58;;
18596;SDS011;9428;50.950;6.912;2023-04-01T17:22:44;2.40;;;2.20;;
18596;SDS011;9428;50.950;6.912;2023-04-01T17:25:51;4.07;;;2.50;;
18596;SDS011;9428;50.950;6.912;2023-04-01T17:28:50;2.47;;;2.17;;
18596;SDS011;9428;50.950;6.912;2023-04-01T17:31:46;2.47;;;2.17;;
18596;SDS011;9428;50.950;6.912;2023-04-01T17:34:46;2.47;;;2.05;;
18596;SDS011;9428;50.950;6.912;2023-04-01T17:37:44;3.67;;;2.17;;
18596;SDS011;9428;50.950;6.912;2023-04-01T17:40:42;3.38;;;2.55;;
18596;SDS011;9428;50.950;6.912;2023-04-01T17:43:40;3.13;;;2.83;;
18596;SDS011;9428;50.950;6.912;2023-04-01T17:46:35;4.10;;;2.70;;
18596;SDS011;9428;50.950;6.912;2023-04-01T17:49:37;3.67;;;2.92;;
18596;SDS011;9428;50.950;6.912;2023-04-01T17:52:30;4.70;;;3.80;;
18596;SDS011;9428;50.950;6.912;2023-04-01T17:55:43;3.83;;;3.22;;
18596;SDS011;9428;50.950;6.912;2023-04-01T17:58:40;3.40;;;3.00;;
18596;SDS011;9428;50.950;6.912;2023-04-01T18:01:41;3.58;;;3.03;;
18596;SDS011;9428;50.950;6.912;2023-04-01T18:04:40;5.07;;;3.30;;
18596;SDS011;9428;50.950;6.912;2023-04-01T18:07:44;6.80;;;3.70;;
18596;SDS011;9428;50.950;6.912;2023-04-01T18:10:54;3.60;;;3.30;;
18596;SDS011;9428;50.950;6.912;2023-04-01T18:13:53;4.22;;;3.05;;
18596;SDS011;9428;50.950;6.912;2023-04-01T18:17:09;4.72;;;4.00;;
18596;SDS011;9428;50.950;6.912;2023-04-01T18:20:11;5.07;;;4.03;;
18596;SDS011;9428;50.950;6.912;2023-04-01T18:23:23;3.95;;;3.53;;
18596;SDS011;9428;50.950;6.912;2023-04-01T18:26:19;4.82;;;3.75;;
18596;SDS011;9428;50.950;6.912;2023-04-01T18:29:12;5.50;;;4.50;;
18596;SDS011;9428;50.950;6.912;2023-04-01T18:32:15;4.47;;;4.07;;
18596;SDS011;9428;50.950;6.912;2023-04-01T18:35:24;5.35;;;3.67;;
18596;SDS011;9428;50.950;6.912;2023-04-01T18:38:16;6.15;;;4.32;;
18596;SDS011;9428;50.950;6.912;2023-04-01T18:41:12;6.80;;;4.28;;
18596;SDS011;9428;50.950;6.912;2023-04-01T18:44:04;14.95;;;5.68;;
18596;SDS011;9428;50.950;6.912;2023-04-01T18:47:14;6.72;;;3.72;;
18596;SDS011;9428;50.950;6.912;2023-04-01T18:50:13;4.47;;;3.10;;
18596;SDS011;9428;50.950;6.912;2023-04-01T18:53:15;3.85;;;3.53;;
18596;SDS011;9428;50.950;6.912;2023-04-01T18:56:10;3.63;;;3.33;;
18596;SDS011;9428;50.950;6.912;2023-04-01T18:59:01;3.30;;;3.00;;
18596;SDS011;9428;50.950;6.912;2023-04-01T19:01:57;4.78;;;3.90;;
18596;SDS011;9428;50.950;6.912;2023-04-01T19:04:50;4.10;;;3.60;;
18596;SDS011;9428;50.950;6.912;2023-04-01T19:07:45;5.93;;;5.25;;
18596;SDS011;9428;50.950;6.912;2023-04-01T19:10:39;6.18;;;4.60;;
18596;SDS011;9428;50.950;6.912;2023-04-01T19:13:37;6.05;;;4.82;;
18596;SDS011;9428;50.950;6.912;2023-04-01T19:16:36;6.30;;;4.15;;
18596;SDS011;9428;50.950;6.912;2023-04-01T19:19:34;4.82;;;3.80;;
18596;SDS011;9428;50.950;6.912;2023-04-01T19:22:41;5.05;;;3.97;;
18596;SDS011;9428;50.950;6.912;2023-04-01T19:25:40;4.22;;;3.25;;